<?xml version="1.0" encoding="UTF-8" standalone="no" ?>
<gpx xmlns="http://www.topografix.com/GPX/1/1" xmlns:xsi="http://www.w3.org/2001/XMLSchema-instance" xsi:schemaLocation="http://www.topografix.com/GPX/1/1 http://www.topografix.com/GPX/1/1/gpx.xsd" version="1.1" creator="VisuGPX - https://www.visugpx.com">
  <metadata>
    <name>10424579-VTT la fouillade N°14 et fin 12</name>
  </metadata>
  <trk>
    <name><![CDATA[10424579-VTT la fouillade N°14 et fin 12]]></name>
    <trkseg>
      <trkpt lat="44.22826" lon="2.0396">
        <ele>397</ele>
        <time>2019-08-24T21:26:01Z</time>
      </trkpt>
      <trkpt lat="44.22706" lon="2.03899">
        <ele>384.2</ele>
        <time>2019-08-24T21:26:03Z</time>
      </trkpt>
      <trkpt lat="44.22777" lon="2.03814">
        <ele>394.6</ele>
        <time>2019-08-24T21:26:08Z</time>
      </trkpt>
      <trkpt lat="44.2265" lon="2.03333">
        <ele>414.5</ele>
        <time>2019-08-24T21:26:23Z</time>
      </trkpt>
      <trkpt lat="44.22574" lon="2.03204">
        <ele>432.6</ele>
        <time>2019-08-24T21:26:28Z</time>
      </trkpt>
      <trkpt lat="44.22567" lon="2.0305">
        <ele>427.3</ele>
        <time>2019-08-24T21:26:34Z</time>
      </trkpt>
      <trkpt lat="44.22494" lon="2.02925">
        <ele>410.2</ele>
        <time>2019-08-24T21:26:43Z</time>
      </trkpt>
      <trkpt lat="44.22403" lon="2.02547">
        <ele>391.8</ele>
        <time>2019-08-24T21:26:47Z</time>
      </trkpt>
      <trkpt lat="44.22314" lon="2.02771">
        <ele>385</ele>
        <time>2019-08-24T21:26:53Z</time>
      </trkpt>
      <trkpt lat="44.22088" lon="2.03193">
        <ele>376.7</ele>
        <time>2019-08-24T21:26:55Z</time>
      </trkpt>
      <trkpt lat="44.22086" lon="2.03327">
        <ele>374.8</ele>
        <time>2019-08-24T21:27:04Z</time>
      </trkpt>
      <trkpt lat="44.22006" lon="2.03624">
        <ele>361.8</ele>
        <time>2019-08-24T21:27:07Z</time>
      </trkpt>
      <trkpt lat="44.21934" lon="2.03746">
        <ele>363.4</ele>
        <time>2019-08-24T21:27:09Z</time>
      </trkpt>
      <trkpt lat="44.21953" lon="2.0384">
        <ele>371.8</ele>
        <time>2019-08-24T21:27:23Z</time>
      </trkpt>
      <trkpt lat="44.21999" lon="2.03873">
        <ele>375.8</ele>
        <time>2019-08-24T21:27:31Z</time>
      </trkpt>
      <trkpt lat="44.22001" lon="2.03976">
        <ele>380.3</ele>
        <time>2019-08-24T21:27:37Z</time>
      </trkpt>
      <trkpt lat="44.21453" lon="2.03928">
        <ele>357.9</ele>
        <time>2019-08-24T21:27:46Z</time>
      </trkpt>
      <trkpt lat="44.21316" lon="2.03858">
        <ele>349.5</ele>
        <time>2019-08-24T21:27:52Z</time>
      </trkpt>
      <trkpt lat="44.2127" lon="2.0387">
        <ele>347.4</ele>
        <time>2019-08-24T21:27:55Z</time>
      </trkpt>
      <trkpt lat="44.2112" lon="2.04043">
        <ele>334.6</ele>
        <time>2019-08-24T21:28:06Z</time>
      </trkpt>
      <trkpt lat="44.21057" lon="2.04158">
        <ele>327.9</ele>
        <time>2019-08-24T21:28:11Z</time>
      </trkpt>
      <trkpt lat="44.21019" lon="2.04181">
        <ele>326.4</ele>
        <time>2019-08-24T21:28:22Z</time>
      </trkpt>
      <trkpt lat="44.20944" lon="2.04172">
        <ele>323.1</ele>
        <time>2019-08-24T21:28:28Z</time>
      </trkpt>
      <trkpt lat="44.20918" lon="2.04187">
        <ele>319.9</ele>
        <time>2019-08-24T21:28:32Z</time>
      </trkpt>
      <trkpt lat="44.20903" lon="2.04225">
        <ele>319.4</ele>
        <time>2019-08-24T21:28:38Z</time>
      </trkpt>
      <trkpt lat="44.20927" lon="2.04333">
        <ele>315.1</ele>
        <time>2019-08-24T21:28:53Z</time>
      </trkpt>
      <trkpt lat="44.20904" lon="2.04375">
        <ele>309.6</ele>
        <time>2019-08-24T21:29:22Z</time>
      </trkpt>
      <trkpt lat="44.20859" lon="2.04422">
        <ele>314.9</ele>
        <time>2019-08-24T21:29:26Z</time>
      </trkpt>
      <trkpt lat="44.20847" lon="2.04492">
        <ele>313.2</ele>
        <time>2019-08-24T21:29:31Z</time>
      </trkpt>
      <trkpt lat="44.20832" lon="2.0455">
        <ele>311.8</ele>
        <time>2019-08-24T21:29:32Z</time>
      </trkpt>
      <trkpt lat="44.20803" lon="2.0458">
        <ele>310.8</ele>
        <time>2019-08-24T21:29:40Z</time>
      </trkpt>
      <trkpt lat="44.20709" lon="2.04665">
        <ele>318.9</ele>
        <time>2019-08-24T21:29:51Z</time>
      </trkpt>
      <trkpt lat="44.20694" lon="2.04623">
        <ele>329.8</ele>
        <time>2019-08-24T21:29:57Z</time>
      </trkpt>
      <trkpt lat="44.20666" lon="2.04724">
        <ele>332</ele>
        <time>2019-08-24T21:30:08Z</time>
      </trkpt>
      <trkpt lat="44.20662" lon="2.04735">
        <ele>333</ele>
        <time>2019-08-24T21:30:09Z</time>
      </trkpt>
      <trkpt lat="44.20649" lon="2.04752">
        <ele>335</ele>
        <time>2019-08-24T21:30:14Z</time>
      </trkpt>
      <trkpt lat="44.20614" lon="2.04831">
        <ele>336</ele>
        <time>2019-08-24T21:30:17Z</time>
      </trkpt>
      <trkpt lat="44.20599" lon="2.04853">
        <ele>338</ele>
        <time>2019-08-24T21:30:21Z</time>
      </trkpt>
      <trkpt lat="44.20579" lon="2.04875">
        <ele>341</ele>
        <time>2019-08-24T21:30:29Z</time>
      </trkpt>
      <trkpt lat="44.20557" lon="2.04921">
        <ele>344</ele>
        <time>2019-08-24T21:30:35Z</time>
      </trkpt>
      <trkpt lat="44.20552" lon="2.04939">
        <ele>345</ele>
        <time>2019-08-24T21:30:38Z</time>
      </trkpt>
      <trkpt lat="44.20549" lon="2.04974">
        <ele>345</ele>
        <time>2019-08-24T21:30:47Z</time>
      </trkpt>
      <trkpt lat="44.20544" lon="2.04987">
        <ele>346</ele>
        <time>2019-08-24T21:30:56Z</time>
      </trkpt>
      <trkpt lat="44.20542" lon="2.0504">
        <ele>345</ele>
        <time>2019-08-24T21:30:58Z</time>
      </trkpt>
      <trkpt lat="44.20538" lon="2.05055">
        <ele>345</ele>
        <time>2019-08-24T21:31:00Z</time>
      </trkpt>
      <trkpt lat="44.20531" lon="2.05068">
        <ele>346</ele>
        <time>2019-08-24T21:31:05Z</time>
      </trkpt>
      <trkpt lat="44.20488" lon="2.05125">
        <ele>349</ele>
        <time>2019-08-24T21:31:10Z</time>
      </trkpt>
      <trkpt lat="44.20459" lon="2.05153">
        <ele>351</ele>
        <time>2019-08-24T21:31:12Z</time>
      </trkpt>
      <trkpt lat="44.20441" lon="2.05175">
        <ele>353</ele>
        <time>2019-08-24T21:31:26Z</time>
      </trkpt>
      <trkpt lat="44.20408" lon="2.05205">
        <ele>355</ele>
        <time>2019-08-24T21:31:29Z</time>
      </trkpt>
      <trkpt lat="44.20392" lon="2.0523">
        <ele>355</ele>
        <time>2019-08-24T21:31:40Z</time>
      </trkpt>
      <trkpt lat="44.20385" lon="2.05248">
        <ele>355</ele>
        <time>2019-08-24T21:31:54Z</time>
      </trkpt>
      <trkpt lat="44.2035" lon="2.05287">
        <ele>353</ele>
        <time>2019-08-24T21:31:56Z</time>
      </trkpt>
      <trkpt lat="44.20336" lon="2.05311">
        <ele>352</ele>
        <time>2019-08-24T21:32:01Z</time>
      </trkpt>
      <trkpt lat="44.20301" lon="2.05358">
        <ele>350</ele>
        <time>2019-08-24T21:32:04Z</time>
      </trkpt>
      <trkpt lat="44.20281" lon="2.0538">
        <ele>349</ele>
        <time>2019-08-24T21:32:18Z</time>
      </trkpt>
      <trkpt lat="44.20275" lon="2.05399">
        <ele>349</ele>
        <time>2019-08-24T21:32:35Z</time>
      </trkpt>
      <trkpt lat="44.20268" lon="2.05437">
        <ele>349</ele>
        <time>2019-08-24T21:32:40Z</time>
      </trkpt>
      <trkpt lat="44.2026" lon="2.05527">
        <ele>348</ele>
        <time>2019-08-24T21:32:51Z</time>
      </trkpt>
      <trkpt lat="44.20261" lon="2.057">
        <ele>347</ele>
        <time>2019-08-24T21:32:57Z</time>
      </trkpt>
      <trkpt lat="44.20263" lon="2.05719">
        <ele>346</ele>
        <time>2019-08-24T21:33:07Z</time>
      </trkpt>
      <trkpt lat="44.20262" lon="2.0575">
        <ele>346</ele>
        <time>2019-08-24T21:33:15Z</time>
      </trkpt>
      <trkpt lat="44.20264" lon="2.05759">
        <ele>346</ele>
        <time>2019-08-24T21:33:17Z</time>
      </trkpt>
      <trkpt lat="44.20262" lon="2.05804">
        <ele>345</ele>
        <time>2019-08-24T21:33:21Z</time>
      </trkpt>
      <trkpt lat="44.20265" lon="2.05871">
        <ele>347</ele>
        <time>2019-08-24T21:33:25Z</time>
      </trkpt>
      <trkpt lat="44.20257" lon="2.05906">
        <ele>348</ele>
        <time>2019-08-24T21:33:36Z</time>
      </trkpt>
      <trkpt lat="44.20249" lon="2.05967">
        <ele>351</ele>
        <time>2019-08-24T21:33:41Z</time>
      </trkpt>
      <trkpt lat="44.20244" lon="2.0597">
        <ele>351</ele>
        <time>2019-08-24T21:33:44Z</time>
      </trkpt>
      <trkpt lat="44.20231" lon="2.05993">
        <ele>352</ele>
        <time>2019-08-24T21:33:46Z</time>
      </trkpt>
      <trkpt lat="44.20219" lon="2.06007">
        <ele>353</ele>
        <time>2019-08-24T21:33:52Z</time>
      </trkpt>
      <trkpt lat="44.20204" lon="2.06016">
        <ele>354</ele>
        <time>2019-08-24T21:34:01Z</time>
      </trkpt>
      <trkpt lat="44.20171" lon="2.06018">
        <ele>355</ele>
        <time>2019-08-24T21:34:06Z</time>
      </trkpt>
      <trkpt lat="44.20146" lon="2.06023">
        <ele>358</ele>
        <time>2019-08-24T21:34:14Z</time>
      </trkpt>
      <trkpt lat="44.20132" lon="2.06021">
        <ele>359</ele>
        <time>2019-08-24T21:34:20Z</time>
      </trkpt>
      <trkpt lat="44.20095" lon="2.0601">
        <ele>362</ele>
        <time>2019-08-24T21:34:27Z</time>
      </trkpt>
      <trkpt lat="44.20059" lon="2.05988">
        <ele>361</ele>
        <time>2019-08-24T21:34:29Z</time>
      </trkpt>
      <trkpt lat="44.2005" lon="2.05987">
        <ele>360</ele>
        <time>2019-08-24T21:34:33Z</time>
      </trkpt>
      <trkpt lat="44.20044" lon="2.05989">
        <ele>361</ele>
        <time>2019-08-24T21:34:36Z</time>
      </trkpt>
      <trkpt lat="44.20022" lon="2.06003">
        <ele>362</ele>
        <time>2019-08-24T21:34:45Z</time>
      </trkpt>
      <trkpt lat="44.20006" lon="2.06018">
        <ele>362</ele>
        <time>2019-08-24T21:34:50Z</time>
      </trkpt>
      <trkpt lat="44.19999" lon="2.06028">
        <ele>361</ele>
        <time>2019-08-24T21:34:54Z</time>
      </trkpt>
      <trkpt lat="44.19973" lon="2.06101">
        <ele>359</ele>
        <time>2019-08-24T21:34:57Z</time>
      </trkpt>
      <trkpt lat="44.19963" lon="2.06116">
        <ele>359</ele>
        <time>2019-08-24T21:35:02Z</time>
      </trkpt>
      <trkpt lat="44.19924" lon="2.06144">
        <ele>354</ele>
        <time>2019-08-24T21:35:11Z</time>
      </trkpt>
      <trkpt lat="44.19882" lon="2.06204">
        <ele>359</ele>
        <time>2019-08-24T21:35:18Z</time>
      </trkpt>
      <trkpt lat="44.19873" lon="2.06209">
        <ele>359</ele>
        <time>2019-08-24T21:35:25Z</time>
      </trkpt>
      <trkpt lat="44.19849" lon="2.06212">
        <ele>358</ele>
        <time>2019-08-24T21:35:30Z</time>
      </trkpt>
      <trkpt lat="44.19839" lon="2.06209">
        <ele>357</ele>
        <time>2019-08-24T21:35:33Z</time>
      </trkpt>
      <trkpt lat="44.19779" lon="2.06204">
        <ele>358</ele>
        <time>2019-08-24T21:35:46Z</time>
      </trkpt>
      <trkpt lat="44.1971" lon="2.06172">
        <ele>357</ele>
        <time>2019-08-24T21:35:47Z</time>
      </trkpt>
      <trkpt lat="44.19689" lon="2.06169">
        <ele>359</ele>
        <time>2019-08-24T21:35:53Z</time>
      </trkpt>
      <trkpt lat="44.1964" lon="2.06177">
        <ele>363</ele>
        <time>2019-08-24T21:35:57Z</time>
      </trkpt>
      <trkpt lat="44.19617" lon="2.06174">
        <ele>362</ele>
        <time>2019-08-24T21:36:02Z</time>
      </trkpt>
      <trkpt lat="44.19575" lon="2.06174">
        <ele>362</ele>
        <time>2019-08-24T21:36:05Z</time>
      </trkpt>
      <trkpt lat="44.19539" lon="2.06182">
        <ele>361</ele>
        <time>2019-08-24T21:36:09Z</time>
      </trkpt>
      <trkpt lat="44.19531" lon="2.06181">
        <ele>361</ele>
        <time>2019-08-24T21:36:14Z</time>
      </trkpt>
      <trkpt lat="44.19513" lon="2.06185">
        <ele>360</ele>
        <time>2019-08-24T21:36:20Z</time>
      </trkpt>
      <trkpt lat="44.195" lon="2.06195">
        <ele>360</ele>
        <time>2019-08-24T21:36:21Z</time>
      </trkpt>
      <trkpt lat="44.19463" lon="2.06243">
        <ele>354</ele>
        <time>2019-08-24T21:36:25Z</time>
      </trkpt>
      <trkpt lat="44.19459" lon="2.06268">
        <ele>355</ele>
        <time>2019-08-24T21:36:33Z</time>
      </trkpt>
      <trkpt lat="44.19452" lon="2.06288">
        <ele>355</ele>
        <time>2019-08-24T21:36:34Z</time>
      </trkpt>
      <trkpt lat="44.19455" lon="2.06294">
        <ele>356</ele>
        <time>2019-08-24T21:36:35Z</time>
      </trkpt>
      <trkpt lat="44.19446" lon="2.06328">
        <ele>357</ele>
        <time>2019-08-24T21:36:40Z</time>
      </trkpt>
      <trkpt lat="44.1942" lon="2.0637">
        <ele>357</ele>
        <time>2019-08-24T21:36:43Z</time>
      </trkpt>
      <trkpt lat="44.19401" lon="2.06384">
        <ele>357</ele>
        <time>2019-08-24T21:36:48Z</time>
      </trkpt>
      <trkpt lat="44.19366" lon="2.06379">
        <ele>354</ele>
        <time>2019-08-24T21:36:58Z</time>
      </trkpt>
      <trkpt lat="44.19342" lon="2.06383">
        <ele>352</ele>
        <time>2019-08-24T21:37:03Z</time>
      </trkpt>
      <trkpt lat="44.19317" lon="2.06401">
        <ele>353</ele>
        <time>2019-08-24T21:37:10Z</time>
      </trkpt>
      <trkpt lat="44.19307" lon="2.06405">
        <ele>352</ele>
        <time>2019-08-24T21:37:12Z</time>
      </trkpt>
      <trkpt lat="44.19291" lon="2.06418">
        <ele>352</ele>
        <time>2019-08-24T21:37:16Z</time>
      </trkpt>
      <trkpt lat="44.19284" lon="2.06428">
        <ele>352</ele>
        <time>2019-08-24T21:37:28Z</time>
      </trkpt>
      <trkpt lat="44.1927" lon="2.06478">
        <ele>350</ele>
        <time>2019-08-24T21:37:39Z</time>
      </trkpt>
      <trkpt lat="44.19268" lon="2.06511">
        <ele>348</ele>
        <time>2019-08-24T21:37:40Z</time>
      </trkpt>
      <trkpt lat="44.19271" lon="2.06533">
        <ele>348</ele>
        <time>2019-08-24T21:37:43Z</time>
      </trkpt>
      <trkpt lat="44.19279" lon="2.06545">
        <ele>349</ele>
        <time>2019-08-24T21:37:45Z</time>
      </trkpt>
      <trkpt lat="44.19302" lon="2.06557">
        <ele>354</ele>
        <time>2019-08-24T21:37:49Z</time>
      </trkpt>
      <trkpt lat="44.19339" lon="2.06569">
        <ele>362</ele>
        <time>2019-08-24T21:37:50Z</time>
      </trkpt>
      <trkpt lat="44.19367" lon="2.06572">
        <ele>363</ele>
        <time>2019-08-24T21:37:54Z</time>
      </trkpt>
      <trkpt lat="44.19397" lon="2.06579">
        <ele>363</ele>
        <time>2019-08-24T21:37:57Z</time>
      </trkpt>
      <trkpt lat="44.19416" lon="2.06595">
        <ele>359</ele>
        <time>2019-08-24T21:38:02Z</time>
      </trkpt>
      <trkpt lat="44.19426" lon="2.06599">
        <ele>360</ele>
        <time>2019-08-24T21:38:14Z</time>
      </trkpt>
      <trkpt lat="44.19475" lon="2.06639">
        <ele>361</ele>
        <time>2019-08-24T21:38:21Z</time>
      </trkpt>
      <trkpt lat="44.19481" lon="2.06645">
        <ele>361</ele>
        <time>2019-08-24T21:38:24Z</time>
      </trkpt>
      <trkpt lat="44.19497" lon="2.06671">
        <ele>361</ele>
        <time>2019-08-24T21:38:28Z</time>
      </trkpt>
      <trkpt lat="44.19511" lon="2.06683">
        <ele>357</ele>
        <time>2019-08-24T21:38:31Z</time>
      </trkpt>
      <trkpt lat="44.19526" lon="2.06704">
        <ele>350</ele>
        <time>2019-08-24T21:38:41Z</time>
      </trkpt>
      <trkpt lat="44.19538" lon="2.0671">
        <ele>348</ele>
        <time>2019-08-24T21:38:46Z</time>
      </trkpt>
      <trkpt lat="44.19554" lon="2.0671">
        <ele>349</ele>
        <time>2019-08-24T21:38:53Z</time>
      </trkpt>
      <trkpt lat="44.19575" lon="2.06701">
        <ele>352</ele>
        <time>2019-08-24T21:39:14Z</time>
      </trkpt>
      <trkpt lat="44.19597" lon="2.06687">
        <ele>356</ele>
        <time>2019-08-24T21:39:18Z</time>
      </trkpt>
      <trkpt lat="44.196" lon="2.06682">
        <ele>357</ele>
        <time>2019-08-24T21:39:21Z</time>
      </trkpt>
      <trkpt lat="44.19617" lon="2.06668">
        <ele>360</ele>
        <time>2019-08-24T21:39:27Z</time>
      </trkpt>
      <trkpt lat="44.19642" lon="2.06639">
        <ele>364</ele>
        <time>2019-08-24T21:39:32Z</time>
      </trkpt>
      <trkpt lat="44.19648" lon="2.0664">
        <ele>363</ele>
        <time>2019-08-24T21:39:37Z</time>
      </trkpt>
      <trkpt lat="44.19652" lon="2.06644">
        <ele>362</ele>
        <time>2019-08-24T21:39:42Z</time>
      </trkpt>
      <trkpt lat="44.19663" lon="2.06666">
        <ele>357</ele>
        <time>2019-08-24T21:39:44Z</time>
      </trkpt>
      <trkpt lat="44.19666" lon="2.06683">
        <ele>356</ele>
        <time>2019-08-24T21:39:47Z</time>
      </trkpt>
      <trkpt lat="44.19666" lon="2.06714">
        <ele>354</ele>
        <time>2019-08-24T21:39:53Z</time>
      </trkpt>
      <trkpt lat="44.19674" lon="2.0677">
        <ele>353</ele>
        <time>2019-08-24T21:39:56Z</time>
      </trkpt>
      <trkpt lat="44.19688" lon="2.06799">
        <ele>357</ele>
        <time>2019-08-24T21:40:00Z</time>
      </trkpt>
      <trkpt lat="44.19706" lon="2.06829">
        <ele>361</ele>
        <time>2019-08-24T21:40:10Z</time>
      </trkpt>
      <trkpt lat="44.19712" lon="2.06834">
        <ele>363</ele>
        <time>2019-08-24T21:40:15Z</time>
      </trkpt>
      <trkpt lat="44.19721" lon="2.0686">
        <ele>363</ele>
        <time>2019-08-24T21:40:21Z</time>
      </trkpt>
      <trkpt lat="44.19748" lon="2.06919">
        <ele>362</ele>
        <time>2019-08-24T21:40:34Z</time>
      </trkpt>
      <trkpt lat="44.19769" lon="2.06975">
        <ele>369</ele>
        <time>2019-08-24T21:40:36Z</time>
      </trkpt>
      <trkpt lat="44.19773" lon="2.06978">
        <ele>371</ele>
        <time>2019-08-24T21:40:39Z</time>
      </trkpt>
      <trkpt lat="44.19771" lon="2.06998">
        <ele>369</ele>
        <time>2019-08-24T21:40:43Z</time>
      </trkpt>
      <trkpt lat="44.19767" lon="2.07006">
        <ele>368</ele>
        <time>2019-08-24T21:40:50Z</time>
      </trkpt>
      <trkpt lat="44.19751" lon="2.07018">
        <ele>365</ele>
        <time>2019-08-24T21:40:54Z</time>
      </trkpt>
      <trkpt lat="44.19745" lon="2.07019">
        <ele>365</ele>
        <time>2019-08-24T21:41:04Z</time>
      </trkpt>
      <trkpt lat="44.19731" lon="2.07016">
        <ele>364</ele>
        <time>2019-08-24T21:41:15Z</time>
      </trkpt>
      <trkpt lat="44.19718" lon="2.07009">
        <ele>363</ele>
        <time>2019-08-24T21:41:19Z</time>
      </trkpt>
      <trkpt lat="44.19701" lon="2.06991">
        <ele>359</ele>
        <time>2019-08-24T21:41:31Z</time>
      </trkpt>
      <trkpt lat="44.19651" lon="2.06965">
        <ele>349</ele>
        <time>2019-08-24T21:41:38Z</time>
      </trkpt>
      <trkpt lat="44.19626" lon="2.06947">
        <ele>343</ele>
        <time>2019-08-24T21:41:43Z</time>
      </trkpt>
      <trkpt lat="44.19613" lon="2.06941">
        <ele>340</ele>
        <time>2019-08-24T21:41:44Z</time>
      </trkpt>
      <trkpt lat="44.19598" lon="2.0694">
        <ele>338</ele>
        <time>2019-08-24T21:41:47Z</time>
      </trkpt>
      <trkpt lat="44.19584" lon="2.06945">
        <ele>338</ele>
        <time>2019-08-24T21:42:05Z</time>
      </trkpt>
      <trkpt lat="44.19549" lon="2.06977">
        <ele>342</ele>
        <time>2019-08-24T21:42:09Z</time>
      </trkpt>
      <trkpt lat="44.19527" lon="2.06986">
        <ele>341</ele>
        <time>2019-08-24T21:42:12Z</time>
      </trkpt>
      <trkpt lat="44.19499" lon="2.06985">
        <ele>336</ele>
        <time>2019-08-24T21:42:14Z</time>
      </trkpt>
      <trkpt lat="44.1941" lon="2.07003">
        <ele>338</ele>
        <time>2019-08-24T21:42:21Z</time>
      </trkpt>
      <trkpt lat="44.19394" lon="2.06991">
        <ele>334</ele>
        <time>2019-08-24T21:42:24Z</time>
      </trkpt>
      <trkpt lat="44.19381" lon="2.06987">
        <ele>333</ele>
        <time>2019-08-24T21:42:28Z</time>
      </trkpt>
      <trkpt lat="44.19358" lon="2.06985">
        <ele>333</ele>
        <time>2019-08-24T21:42:30Z</time>
      </trkpt>
      <trkpt lat="44.19334" lon="2.0699">
        <ele>335</ele>
        <time>2019-08-24T21:42:34Z</time>
      </trkpt>
      <trkpt lat="44.19315" lon="2.0699">
        <ele>332</ele>
        <time>2019-08-24T21:42:35Z</time>
      </trkpt>
      <trkpt lat="44.19292" lon="2.06995">
        <ele>330</ele>
        <time>2019-08-24T21:42:36Z</time>
      </trkpt>
      <trkpt lat="44.19286" lon="2.06999">
        <ele>331</ele>
        <time>2019-08-24T21:42:37Z</time>
      </trkpt>
      <trkpt lat="44.19272" lon="2.07001">
        <ele>329</ele>
        <time>2019-08-24T21:42:41Z</time>
      </trkpt>
      <trkpt lat="44.19249" lon="2.07014">
        <ele>330</ele>
        <time>2019-08-24T21:42:42Z</time>
      </trkpt>
      <trkpt lat="44.19235" lon="2.07016">
        <ele>327</ele>
        <time>2019-08-24T21:42:45Z</time>
      </trkpt>
      <trkpt lat="44.19218" lon="2.07022">
        <ele>325</ele>
        <time>2019-08-24T21:42:53Z</time>
      </trkpt>
      <trkpt lat="44.19189" lon="2.07062">
        <ele>329</ele>
        <time>2019-08-24T21:42:59Z</time>
      </trkpt>
      <trkpt lat="44.19171" lon="2.07079">
        <ele>328</ele>
        <time>2019-08-24T21:43:01Z</time>
      </trkpt>
      <trkpt lat="44.19152" lon="2.07107">
        <ele>328</ele>
        <time>2019-08-24T21:43:02Z</time>
      </trkpt>
      <trkpt lat="44.19129" lon="2.07174">
        <ele>337</ele>
        <time>2019-08-24T21:43:12Z</time>
      </trkpt>
      <trkpt lat="44.19121" lon="2.07181">
        <ele>337</ele>
        <time>2019-08-24T21:43:25Z</time>
      </trkpt>
      <trkpt lat="44.19109" lon="2.07186">
        <ele>335</ele>
        <time>2019-08-24T21:43:28Z</time>
      </trkpt>
      <trkpt lat="44.19092" lon="2.0719">
        <ele>332</ele>
        <time>2019-08-24T21:43:32Z</time>
      </trkpt>
      <trkpt lat="44.19064" lon="2.07201">
        <ele>328</ele>
        <time>2019-08-24T21:43:37Z</time>
      </trkpt>
      <trkpt lat="44.19048" lon="2.07216">
        <ele>327</ele>
        <time>2019-08-24T21:43:50Z</time>
      </trkpt>
      <trkpt lat="44.19014" lon="2.07256">
        <ele>328</ele>
        <time>2019-08-24T21:43:55Z</time>
      </trkpt>
      <trkpt lat="44.18975" lon="2.07285">
        <ele>324</ele>
        <time>2019-08-24T21:43:57Z</time>
      </trkpt>
      <trkpt lat="44.18961" lon="2.07299">
        <ele>323</ele>
        <time>2019-08-24T21:44:03Z</time>
      </trkpt>
      <trkpt lat="44.1891" lon="2.07324">
        <ele>315</ele>
        <time>2019-08-24T21:44:13Z</time>
      </trkpt>
      <trkpt lat="44.18884" lon="2.0734">
        <ele>311</ele>
        <time>2019-08-24T21:44:19Z</time>
      </trkpt>
      <trkpt lat="44.18869" lon="2.07358">
        <ele>308</ele>
        <time>2019-08-24T21:44:22Z</time>
      </trkpt>
      <trkpt lat="44.18865" lon="2.07367">
        <ele>307</ele>
        <time>2019-08-24T21:44:24Z</time>
      </trkpt>
      <trkpt lat="44.18863" lon="2.07384">
        <ele>307</ele>
        <time>2019-08-24T21:44:25Z</time>
      </trkpt>
      <trkpt lat="44.18882" lon="2.07486">
        <ele>310</ele>
        <time>2019-08-24T21:44:26Z</time>
      </trkpt>
      <trkpt lat="44.1889" lon="2.0751">
        <ele>311</ele>
        <time>2019-08-24T21:44:36Z</time>
      </trkpt>
      <trkpt lat="44.18892" lon="2.07525">
        <ele>310</ele>
        <time>2019-08-24T21:44:40Z</time>
      </trkpt>
      <trkpt lat="44.18889" lon="2.07535">
        <ele>308</ele>
        <time>2019-08-24T21:44:46Z</time>
      </trkpt>
      <trkpt lat="44.18867" lon="2.07566">
        <ele>301</ele>
        <time>2019-08-24T21:44:55Z</time>
      </trkpt>
      <trkpt lat="44.18856" lon="2.07572">
        <ele>299</ele>
        <time>2019-08-24T21:44:59Z</time>
      </trkpt>
      <trkpt lat="44.1884" lon="2.07578">
        <ele>296</ele>
        <time>2019-08-24T21:45:03Z</time>
      </trkpt>
      <trkpt lat="44.18832" lon="2.07578">
        <ele>295</ele>
        <time>2019-08-24T21:45:08Z</time>
      </trkpt>
      <trkpt lat="44.18814" lon="2.07569">
        <ele>294</ele>
        <time>2019-08-24T21:45:12Z</time>
      </trkpt>
      <trkpt lat="44.18809" lon="2.07569">
        <ele>294</ele>
        <time>2019-08-24T21:45:17Z</time>
      </trkpt>
      <trkpt lat="44.18808" lon="2.07563">
        <ele>294</ele>
        <time>2019-08-24T21:45:18Z</time>
      </trkpt>
      <trkpt lat="44.18808" lon="2.07569">
        <ele>294</ele>
        <time>2019-08-24T21:45:24Z</time>
      </trkpt>
      <trkpt lat="44.18822" lon="2.07579">
        <ele>295</ele>
        <time>2019-08-24T21:45:26Z</time>
      </trkpt>
      <trkpt lat="44.18826" lon="2.07581">
        <ele>295</ele>
        <time>2019-08-24T21:45:27Z</time>
      </trkpt>
      <trkpt lat="44.18841" lon="2.0758">
        <ele>296</ele>
        <time>2019-08-24T21:45:36Z</time>
      </trkpt>
      <trkpt lat="44.1887" lon="2.07564">
        <ele>302</ele>
        <time>2019-08-24T21:45:39Z</time>
      </trkpt>
      <trkpt lat="44.18888" lon="2.07538">
        <ele>308</ele>
        <time>2019-08-24T21:45:45Z</time>
      </trkpt>
      <trkpt lat="44.18889" lon="2.07525">
        <ele>309</ele>
        <time>2019-08-24T21:45:46Z</time>
      </trkpt>
      <trkpt lat="44.18892" lon="2.07519">
        <ele>311</ele>
        <time>2019-08-24T21:45:49Z</time>
      </trkpt>
      <trkpt lat="44.18877" lon="2.07461">
        <ele>310</ele>
        <time>2019-08-24T21:45:55Z</time>
      </trkpt>
      <trkpt lat="44.18864" lon="2.07386">
        <ele>307</ele>
        <time>2019-08-24T21:46:06Z</time>
      </trkpt>
      <trkpt lat="44.18866" lon="2.0737">
        <ele>307</ele>
        <time>2019-08-24T21:46:09Z</time>
      </trkpt>
      <trkpt lat="44.18875" lon="2.07352">
        <ele>309</ele>
        <time>2019-08-24T21:46:13Z</time>
      </trkpt>
      <trkpt lat="44.18895" lon="2.07334">
        <ele>314</ele>
        <time>2019-08-24T21:46:15Z</time>
      </trkpt>
      <trkpt lat="44.18946" lon="2.07306">
        <ele>321</ele>
        <time>2019-08-24T21:46:22Z</time>
      </trkpt>
      <trkpt lat="44.18963" lon="2.07294">
        <ele>323</ele>
        <time>2019-08-24T21:46:34Z</time>
      </trkpt>
      <trkpt lat="44.18972" lon="2.07284">
        <ele>323</ele>
        <time>2019-08-24T21:46:41Z</time>
      </trkpt>
      <trkpt lat="44.18994" lon="2.07271">
        <ele>326</ele>
        <time>2019-08-24T21:47:00Z</time>
      </trkpt>
      <trkpt lat="44.1903" lon="2.07236">
        <ele>328</ele>
        <time>2019-08-24T21:47:01Z</time>
      </trkpt>
      <trkpt lat="44.19048" lon="2.07209">
        <ele>325</ele>
        <time>2019-08-24T21:47:05Z</time>
      </trkpt>
      <trkpt lat="44.1906" lon="2.072">
        <ele>326</ele>
        <time>2019-08-24T21:47:07Z</time>
      </trkpt>
      <trkpt lat="44.19065" lon="2.07203">
        <ele>329</ele>
        <time>2019-08-24T21:47:16Z</time>
      </trkpt>
      <trkpt lat="44.19062" lon="2.07209">
        <ele>330</ele>
        <time>2019-08-24T21:47:20Z</time>
      </trkpt>
      <trkpt lat="44.19062" lon="2.07216">
        <ele>332</ele>
        <time>2019-08-24T21:47:25Z</time>
      </trkpt>
      <trkpt lat="44.19034" lon="2.07259">
        <ele>335</ele>
        <time>2019-08-24T21:47:32Z</time>
      </trkpt>
      <trkpt lat="44.19024" lon="2.07283">
        <ele>339</ele>
        <time>2019-08-24T21:47:34Z</time>
      </trkpt>
      <trkpt lat="44.19007" lon="2.07303">
        <ele>339</ele>
        <time>2019-08-24T21:47:36Z</time>
      </trkpt>
      <trkpt lat="44.18981" lon="2.07343">
        <ele>341</ele>
        <time>2019-08-24T21:47:40Z</time>
      </trkpt>
      <trkpt lat="44.18972" lon="2.07364">
        <ele>340</ele>
        <time>2019-08-24T21:47:46Z</time>
      </trkpt>
      <trkpt lat="44.18971" lon="2.07388">
        <ele>342</ele>
        <time>2019-08-24T21:47:50Z</time>
      </trkpt>
      <trkpt lat="44.1898" lon="2.07413">
        <ele>347</ele>
        <time>2019-08-24T21:47:52Z</time>
      </trkpt>
      <trkpt lat="44.18985" lon="2.07439">
        <ele>348</ele>
        <time>2019-08-24T21:47:54Z</time>
      </trkpt>
      <trkpt lat="44.18996" lon="2.07465">
        <ele>349</ele>
        <time>2019-08-24T21:47:59Z</time>
      </trkpt>
      <trkpt lat="44.18999" lon="2.0747">
        <ele>350</ele>
        <time>2019-08-24T21:48:01Z</time>
      </trkpt>
      <trkpt lat="44.19022" lon="2.07488">
        <ele>356</ele>
        <time>2019-08-24T21:48:05Z</time>
      </trkpt>
      <trkpt lat="44.19026" lon="2.07496">
        <ele>356</ele>
        <time>2019-08-24T21:48:06Z</time>
      </trkpt>
      <trkpt lat="44.19031" lon="2.07499">
        <ele>358</ele>
        <time>2019-08-24T21:48:13Z</time>
      </trkpt>
      <trkpt lat="44.19053" lon="2.07539">
        <ele>359</ele>
        <time>2019-08-24T21:48:20Z</time>
      </trkpt>
      <trkpt lat="44.19064" lon="2.07554">
        <ele>360</ele>
        <time>2019-08-24T21:48:24Z</time>
      </trkpt>
      <trkpt lat="44.19078" lon="2.0758">
        <ele>361</ele>
        <time>2019-08-24T21:48:25Z</time>
      </trkpt>
      <trkpt lat="44.19084" lon="2.07586">
        <ele>362</ele>
        <time>2019-08-24T21:48:28Z</time>
      </trkpt>
      <trkpt lat="44.1909" lon="2.07602">
        <ele>362</ele>
        <time>2019-08-24T21:48:29Z</time>
      </trkpt>
      <trkpt lat="44.19106" lon="2.07626">
        <ele>364</ele>
        <time>2019-08-24T21:48:32Z</time>
      </trkpt>
      <trkpt lat="44.19111" lon="2.0769">
        <ele>359</ele>
        <time>2019-08-24T21:48:34Z</time>
      </trkpt>
      <trkpt lat="44.19116" lon="2.07705">
        <ele>360</ele>
        <time>2019-08-24T21:48:37Z</time>
      </trkpt>
      <trkpt lat="44.19117" lon="2.07729">
        <ele>358</ele>
        <time>2019-08-24T21:48:47Z</time>
      </trkpt>
      <trkpt lat="44.19114" lon="2.07746">
        <ele>355</ele>
        <time>2019-08-24T21:48:55Z</time>
      </trkpt>
      <trkpt lat="44.19113" lon="2.07786">
        <ele>353</ele>
        <time>2019-08-24T21:49:01Z</time>
      </trkpt>
      <trkpt lat="44.19122" lon="2.07854">
        <ele>351</ele>
        <time>2019-08-24T21:49:02Z</time>
      </trkpt>
      <trkpt lat="44.19133" lon="2.07892">
        <ele>351</ele>
        <time>2019-08-24T21:49:10Z</time>
      </trkpt>
      <trkpt lat="44.19172" lon="2.07992">
        <ele>353</ele>
        <time>2019-08-24T21:49:17Z</time>
      </trkpt>
      <trkpt lat="44.19176" lon="2.07997">
        <ele>354</ele>
        <time>2019-08-24T21:49:20Z</time>
      </trkpt>
      <trkpt lat="44.19181" lon="2.08022">
        <ele>353</ele>
        <time>2019-08-24T21:49:24Z</time>
      </trkpt>
      <trkpt lat="44.19186" lon="2.08032">
        <ele>353</ele>
        <time>2019-08-24T21:49:27Z</time>
      </trkpt>
      <trkpt lat="44.19193" lon="2.0808">
        <ele>350</ele>
        <time>2019-08-24T21:49:33Z</time>
      </trkpt>
      <trkpt lat="44.19191" lon="2.08109">
        <ele>345</ele>
        <time>2019-08-24T21:49:34Z</time>
      </trkpt>
      <trkpt lat="44.19199" lon="2.08131">
        <ele>346</ele>
        <time>2019-08-24T21:49:36Z</time>
      </trkpt>
      <trkpt lat="44.19223" lon="2.08156">
        <ele>352</ele>
        <time>2019-08-24T21:49:40Z</time>
      </trkpt>
      <trkpt lat="44.19229" lon="2.08167">
        <ele>353</ele>
        <time>2019-08-24T21:49:43Z</time>
      </trkpt>
      <trkpt lat="44.19236" lon="2.08172">
        <ele>355</ele>
        <time>2019-08-24T21:49:44Z</time>
      </trkpt>
      <trkpt lat="44.1925" lon="2.08191">
        <ele>357</ele>
        <time>2019-08-24T21:49:49Z</time>
      </trkpt>
      <trkpt lat="44.19263" lon="2.08217">
        <ele>357</ele>
        <time>2019-08-24T21:49:54Z</time>
      </trkpt>
      <trkpt lat="44.19278" lon="2.08231">
        <ele>359</ele>
        <time>2019-08-24T21:50:01Z</time>
      </trkpt>
      <trkpt lat="44.19289" lon="2.08234">
        <ele>362</ele>
        <time>2019-08-24T21:50:05Z</time>
      </trkpt>
      <trkpt lat="44.19295" lon="2.08233">
        <ele>364</ele>
        <time>2019-08-24T21:50:08Z</time>
      </trkpt>
      <trkpt lat="44.19315" lon="2.08222">
        <ele>372</ele>
        <time>2019-08-24T21:50:13Z</time>
      </trkpt>
      <trkpt lat="44.19324" lon="2.0822">
        <ele>375</ele>
        <time>2019-08-24T21:50:23Z</time>
      </trkpt>
      <trkpt lat="44.19328" lon="2.08196">
        <ele>380</ele>
        <time>2019-08-24T21:50:25Z</time>
      </trkpt>
      <trkpt lat="44.19332" lon="2.08191">
        <ele>381</ele>
        <time>2019-08-24T21:50:29Z</time>
      </trkpt>
      <trkpt lat="44.19354" lon="2.08215">
        <ele>384</ele>
        <time>2019-08-24T21:50:30Z</time>
      </trkpt>
      <trkpt lat="44.19371" lon="2.08249">
        <ele>383</ele>
        <time>2019-08-24T21:50:37Z</time>
      </trkpt>
      <trkpt lat="44.19385" lon="2.08265">
        <ele>383</ele>
        <time>2019-08-24T21:50:47Z</time>
      </trkpt>
      <trkpt lat="44.19391" lon="2.08268">
        <ele>384</ele>
        <time>2019-08-24T21:50:54Z</time>
      </trkpt>
      <trkpt lat="44.194" lon="2.08267">
        <ele>386</ele>
        <time>2019-08-24T21:51:00Z</time>
      </trkpt>
      <trkpt lat="44.19405" lon="2.08263">
        <ele>388</ele>
        <time>2019-08-24T21:51:06Z</time>
      </trkpt>
      <trkpt lat="44.19416" lon="2.0826">
        <ele>392</ele>
        <time>2019-08-24T21:51:12Z</time>
      </trkpt>
      <trkpt lat="44.19425" lon="2.08253">
        <ele>394</ele>
        <time>2019-08-24T21:51:22Z</time>
      </trkpt>
      <trkpt lat="44.19433" lon="2.08241">
        <ele>397</ele>
        <time>2019-08-24T21:51:25Z</time>
      </trkpt>
      <trkpt lat="44.19467" lon="2.08203">
        <ele>407</ele>
        <time>2019-08-24T21:51:32Z</time>
      </trkpt>
      <trkpt lat="44.19497" lon="2.0818">
        <ele>415</ele>
        <time>2019-08-24T21:51:43Z</time>
      </trkpt>
      <trkpt lat="44.19516" lon="2.08159">
        <ele>419</ele>
        <time>2019-08-24T21:51:48Z</time>
      </trkpt>
      <trkpt lat="44.19522" lon="2.08157">
        <ele>419</ele>
        <time>2019-08-24T21:51:52Z</time>
      </trkpt>
      <trkpt lat="44.19551" lon="2.08133">
        <ele>424</ele>
        <time>2019-08-24T21:51:57Z</time>
      </trkpt>
      <trkpt lat="44.19573" lon="2.08105">
        <ele>431</ele>
        <time>2019-08-24T21:52:00Z</time>
      </trkpt>
      <trkpt lat="44.1958" lon="2.08091">
        <ele>434</ele>
        <time>2019-08-24T21:52:08Z</time>
      </trkpt>
      <trkpt lat="44.19596" lon="2.08074">
        <ele>438</ele>
        <time>2019-08-24T21:52:11Z</time>
      </trkpt>
      <trkpt lat="44.19602" lon="2.08061">
        <ele>440</ele>
        <time>2019-08-24T21:52:16Z</time>
      </trkpt>
      <trkpt lat="44.1962" lon="2.08037">
        <ele>444</ele>
        <time>2019-08-24T21:52:20Z</time>
      </trkpt>
      <trkpt lat="44.19621" lon="2.08031">
        <ele>445</ele>
        <time>2019-08-24T21:52:23Z</time>
      </trkpt>
      <trkpt lat="44.19631" lon="2.08024">
        <ele>446</ele>
        <time>2019-08-24T21:52:24Z</time>
      </trkpt>
      <trkpt lat="44.19642" lon="2.08009">
        <ele>448</ele>
        <time>2019-08-24T21:52:28Z</time>
      </trkpt>
      <trkpt lat="44.19654" lon="2.08008">
        <ele>448</ele>
        <time>2019-08-24T21:52:34Z</time>
      </trkpt>
      <trkpt lat="44.19659" lon="2.08011">
        <ele>447</ele>
        <time>2019-08-24T21:52:44Z</time>
      </trkpt>
      <trkpt lat="44.19668" lon="2.08036">
        <ele>445</ele>
        <time>2019-08-24T21:52:48Z</time>
      </trkpt>
      <trkpt lat="44.19685" lon="2.08059">
        <ele>445</ele>
        <time>2019-08-24T21:53:00Z</time>
      </trkpt>
      <trkpt lat="44.19686" lon="2.08101">
        <ele>441</ele>
        <time>2019-08-24T21:53:13Z</time>
      </trkpt>
      <trkpt lat="44.1969" lon="2.08123">
        <ele>439</ele>
        <time>2019-08-24T21:53:18Z</time>
      </trkpt>
      <trkpt lat="44.19696" lon="2.0814">
        <ele>438</ele>
        <time>2019-08-24T21:53:21Z</time>
      </trkpt>
      <trkpt lat="44.1971" lon="2.08156">
        <ele>439</ele>
        <time>2019-08-24T21:53:22Z</time>
      </trkpt>
      <trkpt lat="44.19748" lon="2.08186">
        <ele>444</ele>
        <time>2019-08-24T21:53:23Z</time>
      </trkpt>
      <trkpt lat="44.19752" lon="2.08198">
        <ele>443</ele>
        <time>2019-08-24T21:53:30Z</time>
      </trkpt>
      <trkpt lat="44.19765" lon="2.08216">
        <ele>445</ele>
        <time>2019-08-24T21:53:32Z</time>
      </trkpt>
      <trkpt lat="44.19767" lon="2.08223">
        <ele>445</ele>
        <time>2019-08-24T21:53:36Z</time>
      </trkpt>
      <trkpt lat="44.19754" lon="2.08255">
        <ele>440</ele>
        <time>2019-08-24T21:53:40Z</time>
      </trkpt>
      <trkpt lat="44.19724" lon="2.08304">
        <ele>438</ele>
        <time>2019-08-24T21:53:43Z</time>
      </trkpt>
      <trkpt lat="44.19699" lon="2.08326">
        <ele>435</ele>
        <time>2019-08-24T21:53:44Z</time>
      </trkpt>
      <trkpt lat="44.19676" lon="2.08339">
        <ele>432</ele>
        <time>2019-08-24T21:53:47Z</time>
      </trkpt>
      <trkpt lat="44.19651" lon="2.08347">
        <ele>430</ele>
        <time>2019-08-24T21:53:51Z</time>
      </trkpt>
      <trkpt lat="44.19632" lon="2.08367">
        <ele>432</ele>
        <time>2019-08-24T21:53:59Z</time>
      </trkpt>
      <trkpt lat="44.1962" lon="2.08425">
        <ele>438</ele>
        <time>2019-08-24T21:54:01Z</time>
      </trkpt>
      <trkpt lat="44.19619" lon="2.08444">
        <ele>437</ele>
        <time>2019-08-24T21:54:05Z</time>
      </trkpt>
      <trkpt lat="44.19624" lon="2.08484">
        <ele>438</ele>
        <time>2019-08-24T21:54:12Z</time>
      </trkpt>
      <trkpt lat="44.19643" lon="2.08546">
        <ele>436</ele>
        <time>2019-08-24T21:54:13Z</time>
      </trkpt>
      <trkpt lat="44.19656" lon="2.08571">
        <ele>436</ele>
        <time>2019-08-24T21:54:22Z</time>
      </trkpt>
      <trkpt lat="44.19668" lon="2.08582">
        <ele>437</ele>
        <time>2019-08-24T21:54:34Z</time>
      </trkpt>
      <trkpt lat="44.19684" lon="2.08604">
        <ele>439</ele>
        <time>2019-08-24T21:54:45Z</time>
      </trkpt>
      <trkpt lat="44.19691" lon="2.08623">
        <ele>440</ele>
        <time>2019-08-24T21:54:53Z</time>
      </trkpt>
      <trkpt lat="44.19699" lon="2.08669">
        <ele>440</ele>
        <time>2019-08-24T21:54:54Z</time>
      </trkpt>
      <trkpt lat="44.19704" lon="2.08681">
        <ele>440</ele>
        <time>2019-08-24T21:55:04Z</time>
      </trkpt>
      <trkpt lat="44.19708" lon="2.08712">
        <ele>438</ele>
        <time>2019-08-24T21:55:12Z</time>
      </trkpt>
      <trkpt lat="44.19716" lon="2.08732">
        <ele>439</ele>
        <time>2019-08-24T21:55:15Z</time>
      </trkpt>
      <trkpt lat="44.19725" lon="2.08747">
        <ele>440</ele>
        <time>2019-08-24T21:55:19Z</time>
      </trkpt>
      <trkpt lat="44.19725" lon="2.08753">
        <ele>440</ele>
        <time>2019-08-24T21:55:22Z</time>
      </trkpt>
      <trkpt lat="44.19738" lon="2.08768">
        <ele>441</ele>
        <time>2019-08-24T21:55:26Z</time>
      </trkpt>
      <trkpt lat="44.19749" lon="2.08801">
        <ele>439</ele>
        <time>2019-08-24T21:55:30Z</time>
      </trkpt>
      <trkpt lat="44.19786" lon="2.08832">
        <ele>440</ele>
        <time>2019-08-24T21:55:34Z</time>
      </trkpt>
      <trkpt lat="44.19796" lon="2.08851">
        <ele>438</ele>
        <time>2019-08-24T21:55:40Z</time>
      </trkpt>
      <trkpt lat="44.19835" lon="2.08898">
        <ele>440</ele>
        <time>2019-08-24T21:55:53Z</time>
      </trkpt>
      <trkpt lat="44.19875" lon="2.08953">
        <ele>445</ele>
        <time>2019-08-24T21:56:05Z</time>
      </trkpt>
      <trkpt lat="44.19894" lon="2.08962">
        <ele>448</ele>
        <time>2019-08-24T21:56:13Z</time>
      </trkpt>
      <trkpt lat="44.19905" lon="2.08963">
        <ele>449</ele>
        <time>2019-08-24T21:56:27Z</time>
      </trkpt>
      <trkpt lat="44.19908" lon="2.08969">
        <ele>449</ele>
        <time>2019-08-24T21:56:34Z</time>
      </trkpt>
      <trkpt lat="44.19907" lon="2.08976">
        <ele>449</ele>
        <time>2019-08-24T21:56:37Z</time>
      </trkpt>
      <trkpt lat="44.19882" lon="2.08996">
        <ele>446</ele>
        <time>2019-08-24T21:56:41Z</time>
      </trkpt>
      <trkpt lat="44.19872" lon="2.09">
        <ele>446</ele>
        <time>2019-08-24T21:56:50Z</time>
      </trkpt>
      <trkpt lat="44.19856" lon="2.09001">
        <ele>445</ele>
        <time>2019-08-24T21:57:01Z</time>
      </trkpt>
      <trkpt lat="44.19837" lon="2.09008">
        <ele>445</ele>
        <time>2019-08-24T21:57:10Z</time>
      </trkpt>
      <trkpt lat="44.19827" lon="2.09007">
        <ele>444</ele>
        <time>2019-08-24T21:57:19Z</time>
      </trkpt>
      <trkpt lat="44.19821" lon="2.09009">
        <ele>443</ele>
        <time>2019-08-24T21:57:28Z</time>
      </trkpt>
      <trkpt lat="44.19811" lon="2.09016">
        <ele>444</ele>
        <time>2019-08-24T21:57:41Z</time>
      </trkpt>
      <trkpt lat="44.19793" lon="2.09023">
        <ele>443</ele>
        <time>2019-08-24T21:57:44Z</time>
      </trkpt>
      <trkpt lat="44.19767" lon="2.09049">
        <ele>448</ele>
        <time>2019-08-24T21:57:54Z</time>
      </trkpt>
      <trkpt lat="44.19757" lon="2.09054">
        <ele>449</ele>
        <time>2019-08-24T21:58:00Z</time>
      </trkpt>
      <trkpt lat="44.19745" lon="2.09067">
        <ele>452</ele>
        <time>2019-08-24T21:58:17Z</time>
      </trkpt>
      <trkpt lat="44.19716" lon="2.09072">
        <ele>446</ele>
        <time>2019-08-24T21:58:21Z</time>
      </trkpt>
      <trkpt lat="44.1971" lon="2.09075">
        <ele>446</ele>
        <time>2019-08-24T21:58:24Z</time>
      </trkpt>
      <trkpt lat="44.19685" lon="2.09114">
        <ele>448</ele>
        <time>2019-08-24T21:58:29Z</time>
      </trkpt>
      <trkpt lat="44.19665" lon="2.09184">
        <ele>455</ele>
        <time>2019-08-24T21:58:35Z</time>
      </trkpt>
      <trkpt lat="44.19637" lon="2.09231">
        <ele>449</ele>
        <time>2019-08-24T21:58:42Z</time>
      </trkpt>
      <trkpt lat="44.19627" lon="2.09277">
        <ele>450</ele>
        <time>2019-08-24T21:58:53Z</time>
      </trkpt>
      <trkpt lat="44.19628" lon="2.09284">
        <ele>451</ele>
        <time>2019-08-24T21:59:03Z</time>
      </trkpt>
      <trkpt lat="44.19669" lon="2.09263">
        <ele>460</ele>
        <time>2019-08-24T21:59:08Z</time>
      </trkpt>
      <trkpt lat="44.19702" lon="2.0927">
        <ele>467</ele>
        <time>2019-08-24T21:59:11Z</time>
      </trkpt>
      <trkpt lat="44.19717" lon="2.09276">
        <ele>470</ele>
        <time>2019-08-24T21:59:23Z</time>
      </trkpt>
      <trkpt lat="44.19733" lon="2.09277">
        <ele>473</ele>
        <time>2019-08-24T21:59:25Z</time>
      </trkpt>
      <trkpt lat="44.19744" lon="2.09283">
        <ele>475</ele>
        <time>2019-08-24T21:59:33Z</time>
      </trkpt>
      <trkpt lat="44.1976" lon="2.09287">
        <ele>477</ele>
        <time>2019-08-24T21:59:37Z</time>
      </trkpt>
      <trkpt lat="44.19777" lon="2.09301">
        <ele>479</ele>
        <time>2019-08-24T21:59:43Z</time>
      </trkpt>
      <trkpt lat="44.19794" lon="2.093">
        <ele>480</ele>
        <time>2019-08-24T21:59:48Z</time>
      </trkpt>
      <trkpt lat="44.19819" lon="2.0931">
        <ele>482</ele>
        <time>2019-08-24T21:59:51Z</time>
      </trkpt>
      <trkpt lat="44.19871" lon="2.09314">
        <ele>485</ele>
        <time>2019-08-24T21:59:59Z</time>
      </trkpt>
      <trkpt lat="44.19926" lon="2.09311">
        <ele>487</ele>
        <time>2019-08-24T22:00:15Z</time>
      </trkpt>
      <trkpt lat="44.19956" lon="2.09323">
        <ele>488</ele>
        <time>2019-08-24T22:00:23Z</time>
      </trkpt>
      <trkpt lat="44.20016" lon="2.0934">
        <ele>488</ele>
        <time>2019-08-24T22:00:31Z</time>
      </trkpt>
      <trkpt lat="44.20046" lon="2.09354">
        <ele>487</ele>
        <time>2019-08-24T22:00:38Z</time>
      </trkpt>
      <trkpt lat="44.20058" lon="2.09355">
        <ele>487</ele>
        <time>2019-08-24T22:00:39Z</time>
      </trkpt>
      <trkpt lat="44.20073" lon="2.09361">
        <ele>486</ele>
        <time>2019-08-24T22:00:41Z</time>
      </trkpt>
      <trkpt lat="44.20112" lon="2.0937">
        <ele>486</ele>
        <time>2019-08-24T22:00:46Z</time>
      </trkpt>
      <trkpt lat="44.20157" lon="2.09395">
        <ele>486</ele>
        <time>2019-08-24T22:00:49Z</time>
      </trkpt>
      <trkpt lat="44.20186" lon="2.09426">
        <ele>489</ele>
        <time>2019-08-24T22:00:56Z</time>
      </trkpt>
      <trkpt lat="44.20214" lon="2.09462">
        <ele>491</ele>
        <time>2019-08-24T22:00:59Z</time>
      </trkpt>
      <trkpt lat="44.20245" lon="2.09496">
        <ele>493</ele>
        <time>2019-08-24T22:01:03Z</time>
      </trkpt>
      <trkpt lat="44.20293" lon="2.09537">
        <ele>496</ele>
        <time>2019-08-24T22:01:04Z</time>
      </trkpt>
      <trkpt lat="44.20302" lon="2.09548">
        <ele>497</ele>
        <time>2019-08-24T22:01:10Z</time>
      </trkpt>
      <trkpt lat="44.2034" lon="2.09578">
        <ele>500</ele>
        <time>2019-08-24T22:01:17Z</time>
      </trkpt>
      <trkpt lat="44.2036" lon="2.096">
        <ele>501</ele>
        <time>2019-08-24T22:01:24Z</time>
      </trkpt>
      <trkpt lat="44.20422" lon="2.09656">
        <ele>507</ele>
        <time>2019-08-24T22:01:31Z</time>
      </trkpt>
      <trkpt lat="44.20435" lon="2.09661">
        <ele>508</ele>
        <time>2019-08-24T22:01:35Z</time>
      </trkpt>
      <trkpt lat="44.2045" lon="2.09659">
        <ele>509</ele>
        <time>2019-08-24T22:01:38Z</time>
      </trkpt>
      <trkpt lat="44.2047" lon="2.09664">
        <ele>510</ele>
        <time>2019-08-24T22:01:44Z</time>
      </trkpt>
      <trkpt lat="44.20494" lon="2.09679">
        <ele>512</ele>
        <time>2019-08-24T22:01:52Z</time>
      </trkpt>
      <trkpt lat="44.20522" lon="2.09692">
        <ele>513</ele>
        <time>2019-08-24T22:02:21Z</time>
      </trkpt>
      <trkpt lat="44.20565" lon="2.09721">
        <ele>514</ele>
        <time>2019-08-24T22:02:32Z</time>
      </trkpt>
      <trkpt lat="44.20608" lon="2.09738">
        <ele>513</ele>
        <time>2019-08-24T22:02:39Z</time>
      </trkpt>
      <trkpt lat="44.20629" lon="2.09742">
        <ele>513</ele>
        <time>2019-08-24T22:02:59Z</time>
      </trkpt>
      <trkpt lat="44.20641" lon="2.09742">
        <ele>512</ele>
        <time>2019-08-24T22:03:07Z</time>
      </trkpt>
      <trkpt lat="44.2069" lon="2.09724">
        <ele>512</ele>
        <time>2019-08-24T22:03:17Z</time>
      </trkpt>
      <trkpt lat="44.20699" lon="2.09718">
        <ele>512</ele>
        <time>2019-08-24T22:03:19Z</time>
      </trkpt>
      <trkpt lat="44.20727" lon="2.0969">
        <ele>512</ele>
        <time>2019-08-24T22:03:21Z</time>
      </trkpt>
      <trkpt lat="44.20736" lon="2.09673">
        <ele>512</ele>
        <time>2019-08-24T22:03:27Z</time>
      </trkpt>
      <trkpt lat="44.20746" lon="2.09642">
        <ele>510</ele>
        <time>2019-08-24T22:03:29Z</time>
      </trkpt>
      <trkpt lat="44.20758" lon="2.09618">
        <ele>509</ele>
        <time>2019-08-24T22:03:44Z</time>
      </trkpt>
      <trkpt lat="44.20764" lon="2.096">
        <ele>509</ele>
        <time>2019-08-24T22:04:00Z</time>
      </trkpt>
      <trkpt lat="44.20786" lon="2.09561">
        <ele>508</ele>
        <time>2019-08-24T22:04:08Z</time>
      </trkpt>
      <trkpt lat="44.20815" lon="2.09474">
        <ele>508</ele>
        <time>2019-08-24T22:04:30Z</time>
      </trkpt>
      <trkpt lat="44.20822" lon="2.09429">
        <ele>507</ele>
        <time>2019-08-24T22:04:42Z</time>
      </trkpt>
      <trkpt lat="44.20823" lon="2.09378">
        <ele>507</ele>
        <time>2019-08-24T22:04:51Z</time>
      </trkpt>
      <trkpt lat="44.20828" lon="2.09339">
        <ele>508</ele>
        <time>2019-08-24T22:04:54Z</time>
      </trkpt>
      <trkpt lat="44.20832" lon="2.09336">
        <ele>509</ele>
        <time>2019-08-24T22:05:12Z</time>
      </trkpt>
      <trkpt lat="44.20838" lon="2.09325">
        <ele>509</ele>
        <time>2019-08-24T22:05:22Z</time>
      </trkpt>
      <trkpt lat="44.20847" lon="2.093">
        <ele>509</ele>
        <time>2019-08-24T22:05:28Z</time>
      </trkpt>
      <trkpt lat="44.20849" lon="2.09284">
        <ele>509</ele>
        <time>2019-08-24T22:05:33Z</time>
      </trkpt>
      <trkpt lat="44.20846" lon="2.0924">
        <ele>512</ele>
        <time>2019-08-24T22:05:40Z</time>
      </trkpt>
      <trkpt lat="44.20848" lon="2.09226">
        <ele>513</ele>
        <time>2019-08-24T22:05:52Z</time>
      </trkpt>
      <trkpt lat="44.20857" lon="2.09205">
        <ele>514</ele>
        <time>2019-08-24T22:05:57Z</time>
      </trkpt>
      <trkpt lat="44.20862" lon="2.09198">
        <ele>514</ele>
        <time>2019-08-24T22:06:00Z</time>
      </trkpt>
      <trkpt lat="44.20883" lon="2.09181">
        <ele>514</ele>
        <time>2019-08-24T22:06:04Z</time>
      </trkpt>
      <trkpt lat="44.20909" lon="2.09168">
        <ele>514</ele>
        <time>2019-08-24T22:06:13Z</time>
      </trkpt>
      <trkpt lat="44.20942" lon="2.0917">
        <ele>511</ele>
        <time>2019-08-24T22:06:17Z</time>
      </trkpt>
      <trkpt lat="44.2097" lon="2.09182">
        <ele>507</ele>
        <time>2019-08-24T22:06:38Z</time>
      </trkpt>
      <trkpt lat="44.20985" lon="2.09184">
        <ele>506</ele>
        <time>2019-08-24T22:06:42Z</time>
      </trkpt>
      <trkpt lat="44.20999" lon="2.09177">
        <ele>506</ele>
        <time>2019-08-24T22:06:52Z</time>
      </trkpt>
      <trkpt lat="44.21023" lon="2.09159">
        <ele>504</ele>
        <time>2019-08-24T22:06:57Z</time>
      </trkpt>
      <trkpt lat="44.21046" lon="2.09128">
        <ele>500</ele>
        <time>2019-08-24T22:07:05Z</time>
      </trkpt>
      <trkpt lat="44.21127" lon="2.08993">
        <ele>486</ele>
        <time>2019-08-24T22:07:19Z</time>
      </trkpt>
      <trkpt lat="44.2116" lon="2.08952">
        <ele>485</ele>
        <time>2019-08-24T22:07:23Z</time>
      </trkpt>
      <trkpt lat="44.2118" lon="2.08918">
        <ele>484</ele>
        <time>2019-08-24T22:07:28Z</time>
      </trkpt>
      <trkpt lat="44.21224" lon="2.08814">
        <ele>475</ele>
        <time>2019-08-24T22:07:32Z</time>
      </trkpt>
      <trkpt lat="44.21243" lon="2.08779">
        <ele>475</ele>
        <time>2019-08-24T22:07:36Z</time>
      </trkpt>
      <trkpt lat="44.21267" lon="2.08727">
        <ele>471</ele>
        <time>2019-08-24T22:07:52Z</time>
      </trkpt>
      <trkpt lat="44.21271" lon="2.08713">
        <ele>470</ele>
        <time>2019-08-24T22:07:56Z</time>
      </trkpt>
      <trkpt lat="44.2127" lon="2.08706">
        <ele>470</ele>
        <time>2019-08-24T22:07:57Z</time>
      </trkpt>
      <trkpt lat="44.21253" lon="2.08678">
        <ele>471</ele>
        <time>2019-08-24T22:08:02Z</time>
      </trkpt>
      <trkpt lat="44.21254" lon="2.08663">
        <ele>470</ele>
        <time>2019-08-24T22:08:03Z</time>
      </trkpt>
      <trkpt lat="44.21294" lon="2.08596">
        <ele>460</ele>
        <time>2019-08-24T22:08:20Z</time>
      </trkpt>
      <trkpt lat="44.21336" lon="2.08519">
        <ele>456</ele>
        <time>2019-08-24T22:08:25Z</time>
      </trkpt>
      <trkpt lat="44.21344" lon="2.08471">
        <ele>453</ele>
        <time>2019-08-24T22:08:28Z</time>
      </trkpt>
      <trkpt lat="44.21344" lon="2.08339">
        <ele>447</ele>
        <time>2019-08-24T22:08:30Z</time>
      </trkpt>
      <trkpt lat="44.21351" lon="2.08271">
        <ele>447</ele>
        <time>2019-08-24T22:08:36Z</time>
      </trkpt>
      <trkpt lat="44.21363" lon="2.08219">
        <ele>447</ele>
        <time>2019-08-24T22:08:44Z</time>
      </trkpt>
      <trkpt lat="44.21368" lon="2.08206">
        <ele>447</ele>
        <time>2019-08-24T22:09:01Z</time>
      </trkpt>
      <trkpt lat="44.21413" lon="2.08115">
        <ele>448</ele>
        <time>2019-08-24T22:09:13Z</time>
      </trkpt>
      <trkpt lat="44.21426" lon="2.08061">
        <ele>447</ele>
        <time>2019-08-24T22:09:26Z</time>
      </trkpt>
      <trkpt lat="44.21431" lon="2.08026">
        <ele>447</ele>
        <time>2019-08-24T22:09:29Z</time>
      </trkpt>
      <trkpt lat="44.21433" lon="2.07992">
        <ele>447</ele>
        <time>2019-08-24T22:09:35Z</time>
      </trkpt>
      <trkpt lat="44.21432" lon="2.07952">
        <ele>447</ele>
        <time>2019-08-24T22:09:41Z</time>
      </trkpt>
      <trkpt lat="44.21439" lon="2.07884">
        <ele>444</ele>
        <time>2019-08-24T22:09:49Z</time>
      </trkpt>
      <trkpt lat="44.2144" lon="2.07854">
        <ele>443</ele>
        <time>2019-08-24T22:09:54Z</time>
      </trkpt>
      <trkpt lat="44.21438" lon="2.07834">
        <ele>442</ele>
        <time>2019-08-24T22:09:56Z</time>
      </trkpt>
      <trkpt lat="44.21442" lon="2.07812">
        <ele>441</ele>
        <time>2019-08-24T22:09:58Z</time>
      </trkpt>
      <trkpt lat="44.21445" lon="2.07754">
        <ele>438</ele>
        <time>2019-08-24T22:10:01Z</time>
      </trkpt>
      <trkpt lat="44.21444" lon="2.07732">
        <ele>437</ele>
        <time>2019-08-24T22:10:05Z</time>
      </trkpt>
      <trkpt lat="44.21451" lon="2.07607">
        <ele>429</ele>
        <time>2019-08-24T22:10:07Z</time>
      </trkpt>
      <trkpt lat="44.2145" lon="2.07586">
        <ele>428</ele>
        <time>2019-08-24T22:10:09Z</time>
      </trkpt>
      <trkpt lat="44.21464" lon="2.0753">
        <ele>426</ele>
        <time>2019-08-24T22:10:21Z</time>
      </trkpt>
      <trkpt lat="44.21466" lon="2.07498">
        <ele>425</ele>
        <time>2019-08-24T22:10:24Z</time>
      </trkpt>
      <trkpt lat="44.21467" lon="2.07453">
        <ele>426</ele>
        <time>2019-08-24T22:10:32Z</time>
      </trkpt>
      <trkpt lat="44.2146" lon="2.07364">
        <ele>426</ele>
        <time>2019-08-24T22:10:35Z</time>
      </trkpt>
      <trkpt lat="44.21466" lon="2.07344">
        <ele>426</ele>
        <time>2019-08-24T22:10:37Z</time>
      </trkpt>
      <trkpt lat="44.21479" lon="2.07318">
        <ele>426</ele>
        <time>2019-08-24T22:10:39Z</time>
      </trkpt>
      <trkpt lat="44.21479" lon="2.07298">
        <ele>427</ele>
        <time>2019-08-24T22:10:50Z</time>
      </trkpt>
      <trkpt lat="44.21486" lon="2.07274">
        <ele>428</ele>
        <time>2019-08-24T22:10:56Z</time>
      </trkpt>
      <trkpt lat="44.21504" lon="2.07181">
        <ele>430</ele>
        <time>2019-08-24T22:11:04Z</time>
      </trkpt>
      <trkpt lat="44.21511" lon="2.07163">
        <ele>430</ele>
        <time>2019-08-24T22:11:07Z</time>
      </trkpt>
      <trkpt lat="44.21512" lon="2.07153">
        <ele>429</ele>
        <time>2019-08-24T22:11:09Z</time>
      </trkpt>
      <trkpt lat="44.21513" lon="2.07125">
        <ele>429</ele>
        <time>2019-08-24T22:11:13Z</time>
      </trkpt>
      <trkpt lat="44.2151" lon="2.07118">
        <ele>429</ele>
        <time>2019-08-24T22:11:15Z</time>
      </trkpt>
      <trkpt lat="44.21508" lon="2.07018">
        <ele>431</ele>
        <time>2019-08-24T22:11:17Z</time>
      </trkpt>
      <trkpt lat="44.21513" lon="2.06991">
        <ele>431</ele>
        <time>2019-08-24T22:11:18Z</time>
      </trkpt>
      <trkpt lat="44.21513" lon="2.06972">
        <ele>431</ele>
        <time>2019-08-24T22:11:20Z</time>
      </trkpt>
      <trkpt lat="44.21517" lon="2.06964">
        <ele>430</ele>
        <time>2019-08-24T22:11:21Z</time>
      </trkpt>
      <trkpt lat="44.21524" lon="2.06927">
        <ele>429</ele>
        <time>2019-08-24T22:11:23Z</time>
      </trkpt>
      <trkpt lat="44.21527" lon="2.06877">
        <ele>426</ele>
        <time>2019-08-24T22:11:25Z</time>
      </trkpt>
      <trkpt lat="44.21525" lon="2.06779">
        <ele>422</ele>
        <time>2019-08-24T22:11:28Z</time>
      </trkpt>
      <trkpt lat="44.21529" lon="2.06707">
        <ele>416</ele>
        <time>2019-08-24T22:11:30Z</time>
      </trkpt>
      <trkpt lat="44.21527" lon="2.06626">
        <ele>408</ele>
        <time>2019-08-24T22:11:32Z</time>
      </trkpt>
      <trkpt lat="44.21531" lon="2.06612">
        <ele>406</ele>
        <time>2019-08-24T22:11:34Z</time>
      </trkpt>
      <trkpt lat="44.21534" lon="2.06574">
        <ele>401</ele>
        <time>2019-08-24T22:11:37Z</time>
      </trkpt>
      <trkpt lat="44.21533" lon="2.06538">
        <ele>396</ele>
        <time>2019-08-24T22:11:40Z</time>
      </trkpt>
      <trkpt lat="44.21545" lon="2.06496">
        <ele>389</ele>
        <time>2019-08-24T22:11:44Z</time>
      </trkpt>
      <trkpt lat="44.21546" lon="2.06464">
        <ele>386</ele>
        <time>2019-08-24T22:11:46Z</time>
      </trkpt>
      <trkpt lat="44.21544" lon="2.06452">
        <ele>385</ele>
        <time>2019-08-24T22:11:51Z</time>
      </trkpt>
      <trkpt lat="44.21545" lon="2.0644">
        <ele>383</ele>
        <time>2019-08-24T22:11:54Z</time>
      </trkpt>
      <trkpt lat="44.21551" lon="2.06426">
        <ele>382</ele>
        <time>2019-08-24T22:11:56Z</time>
      </trkpt>
      <trkpt lat="44.21551" lon="2.06404">
        <ele>379</ele>
        <time>2019-08-24T22:11:58Z</time>
      </trkpt>
      <trkpt lat="44.21555" lon="2.06395">
        <ele>378</ele>
        <time>2019-08-24T22:12:12Z</time>
      </trkpt>
      <trkpt lat="44.21564" lon="2.06404">
        <ele>378</ele>
        <time>2019-08-24T22:12:14Z</time>
      </trkpt>
      <trkpt lat="44.21593" lon="2.06462">
        <ele>382</ele>
        <time>2019-08-24T22:12:15Z</time>
      </trkpt>
      <trkpt lat="44.21603" lon="2.06469">
        <ele>380</ele>
        <time>2019-08-24T22:12:20Z</time>
      </trkpt>
      <trkpt lat="44.21626" lon="2.06509">
        <ele>378</ele>
        <time>2019-08-24T22:12:24Z</time>
      </trkpt>
      <trkpt lat="44.21636" lon="2.0651">
        <ele>376</ele>
        <time>2019-08-24T22:12:31Z</time>
      </trkpt>
      <trkpt lat="44.21642" lon="2.06498">
        <ele>373</ele>
        <time>2019-08-24T22:12:32Z</time>
      </trkpt>
      <trkpt lat="44.21648" lon="2.06492">
        <ele>371</ele>
        <time>2019-08-24T22:12:35Z</time>
      </trkpt>
      <trkpt lat="44.2167" lon="2.0643">
        <ele>360</ele>
        <time>2019-08-24T22:12:38Z</time>
      </trkpt>
      <trkpt lat="44.21677" lon="2.064">
        <ele>356</ele>
        <time>2019-08-24T22:12:40Z</time>
      </trkpt>
      <trkpt lat="44.21691" lon="2.06357">
        <ele>350</ele>
        <time>2019-08-24T22:12:42Z</time>
      </trkpt>
      <trkpt lat="44.21691" lon="2.06336">
        <ele>348</ele>
        <time>2019-08-24T22:12:45Z</time>
      </trkpt>
      <trkpt lat="44.21696" lon="2.06326">
        <ele>347</ele>
        <time>2019-08-24T22:12:52Z</time>
      </trkpt>
      <trkpt lat="44.217" lon="2.06301">
        <ele>343</ele>
        <time>2019-08-24T22:12:55Z</time>
      </trkpt>
      <trkpt lat="44.21706" lon="2.06295">
        <ele>342</ele>
        <time>2019-08-24T22:13:00Z</time>
      </trkpt>
      <trkpt lat="44.21712" lon="2.06295">
        <ele>342</ele>
        <time>2019-08-24T22:13:16Z</time>
      </trkpt>
      <trkpt lat="44.2172" lon="2.06299">
        <ele>342</ele>
        <time>2019-08-24T22:13:17Z</time>
      </trkpt>
      <trkpt lat="44.21726" lon="2.06294">
        <ele>341</ele>
        <time>2019-08-24T22:13:18Z</time>
      </trkpt>
      <trkpt lat="44.21726" lon="2.06286">
        <ele>340</ele>
        <time>2019-08-24T22:13:20Z</time>
      </trkpt>
      <trkpt lat="44.21728" lon="2.06297">
        <ele>342</ele>
        <time>2019-08-24T22:13:24Z</time>
      </trkpt>
      <trkpt lat="44.21722" lon="2.06295">
        <ele>342</ele>
        <time>2019-08-24T22:13:29Z</time>
      </trkpt>
      <trkpt lat="44.21717" lon="2.0628">
        <ele>340</ele>
        <time>2019-08-24T22:13:35Z</time>
      </trkpt>
      <trkpt lat="44.21707" lon="2.06274">
        <ele>339</ele>
        <time>2019-08-24T22:13:37Z</time>
      </trkpt>
      <trkpt lat="44.21702" lon="2.06267">
        <ele>338</ele>
        <time>2019-08-24T22:13:46Z</time>
      </trkpt>
      <trkpt lat="44.21691" lon="2.06269">
        <ele>338</ele>
        <time>2019-08-24T22:14:06Z</time>
      </trkpt>
      <trkpt lat="44.21681" lon="2.06274">
        <ele>339</ele>
        <time>2019-08-24T22:14:08Z</time>
      </trkpt>
      <trkpt lat="44.21668" lon="2.06272">
        <ele>339</ele>
        <time>2019-08-24T22:14:11Z</time>
      </trkpt>
      <trkpt lat="44.21652" lon="2.06276">
        <ele>342</ele>
        <time>2019-08-24T22:14:12Z</time>
      </trkpt>
      <trkpt lat="44.21641" lon="2.06273">
        <ele>344</ele>
        <time>2019-08-24T22:14:14Z</time>
      </trkpt>
      <trkpt lat="44.21622" lon="2.06273">
        <ele>347</ele>
        <time>2019-08-24T22:14:20Z</time>
      </trkpt>
      <trkpt lat="44.2161" lon="2.06277">
        <ele>350</ele>
        <time>2019-08-24T22:14:22Z</time>
      </trkpt>
      <trkpt lat="44.21599" lon="2.06276">
        <ele>352</ele>
        <time>2019-08-24T22:14:24Z</time>
      </trkpt>
      <trkpt lat="44.2159" lon="2.0628">
        <ele>354</ele>
        <time>2019-08-24T22:14:27Z</time>
      </trkpt>
      <trkpt lat="44.2165" lon="2.06278">
        <ele>343</ele>
        <time>2019-08-24T22:14:30Z</time>
      </trkpt>
      <trkpt lat="44.21655" lon="2.06276">
        <ele>342</ele>
        <time>2019-08-24T22:14:32Z</time>
      </trkpt>
      <trkpt lat="44.21657" lon="2.0627">
        <ele>340</ele>
        <time>2019-08-24T22:14:40Z</time>
      </trkpt>
      <trkpt lat="44.2168" lon="2.06264">
        <ele>338</ele>
        <time>2019-08-24T22:14:45Z</time>
      </trkpt>
      <trkpt lat="44.21696" lon="2.06265">
        <ele>338</ele>
        <time>2019-08-24T22:14:46Z</time>
      </trkpt>
      <trkpt lat="44.21722" lon="2.0628">
        <ele>340</ele>
        <time>2019-08-24T22:14:51Z</time>
      </trkpt>
      <trkpt lat="44.21724" lon="2.0627">
        <ele>339</ele>
        <time>2019-08-24T22:14:53Z</time>
      </trkpt>
      <trkpt lat="44.21721" lon="2.06257">
        <ele>337</ele>
        <time>2019-08-24T22:14:56Z</time>
      </trkpt>
      <trkpt lat="44.21706" lon="2.06249">
        <ele>336</ele>
        <time>2019-08-24T22:14:59Z</time>
      </trkpt>
      <trkpt lat="44.217" lon="2.06239">
        <ele>334</ele>
        <time>2019-08-24T22:15:05Z</time>
      </trkpt>
      <trkpt lat="44.21695" lon="2.0624">
        <ele>334</ele>
        <time>2019-08-24T22:15:07Z</time>
      </trkpt>
      <trkpt lat="44.2168" lon="2.06235">
        <ele>333</ele>
        <time>2019-08-24T22:15:08Z</time>
      </trkpt>
      <trkpt lat="44.21651" lon="2.06233">
        <ele>335</ele>
        <time>2019-08-24T22:15:10Z</time>
      </trkpt>
      <trkpt lat="44.21639" lon="2.06228">
        <ele>336</ele>
        <time>2019-08-24T22:15:11Z</time>
      </trkpt>
      <trkpt lat="44.21616" lon="2.06224">
        <ele>338</ele>
        <time>2019-08-24T22:15:13Z</time>
      </trkpt>
      <trkpt lat="44.21554" lon="2.06195">
        <ele>335</ele>
        <time>2019-08-24T22:15:14Z</time>
      </trkpt>
      <trkpt lat="44.21549" lon="2.06196">
        <ele>336</ele>
        <time>2019-08-24T22:15:15Z</time>
      </trkpt>
      <trkpt lat="44.21543" lon="2.06192">
        <ele>335</ele>
        <time>2019-08-24T22:15:19Z</time>
      </trkpt>
      <trkpt lat="44.21538" lon="2.06193">
        <ele>336</ele>
        <time>2019-08-24T22:15:31Z</time>
      </trkpt>
      <trkpt lat="44.21521" lon="2.06182">
        <ele>334</ele>
        <time>2019-08-24T22:15:40Z</time>
      </trkpt>
      <trkpt lat="44.215" lon="2.06173">
        <ele>334</ele>
        <time>2019-08-24T22:15:52Z</time>
      </trkpt>
      <trkpt lat="44.21479" lon="2.06159">
        <ele>332</ele>
        <time>2019-08-24T22:15:53Z</time>
      </trkpt>
      <trkpt lat="44.21472" lon="2.06147">
        <ele>330</ele>
        <time>2019-08-24T22:15:59Z</time>
      </trkpt>
      <trkpt lat="44.21443" lon="2.06111">
        <ele>326</ele>
        <time>2019-08-24T22:16:08Z</time>
      </trkpt>
      <trkpt lat="44.21362" lon="2.06068">
        <ele>325</ele>
        <time>2019-08-24T22:16:17Z</time>
      </trkpt>
      <trkpt lat="44.21355" lon="2.06062">
        <ele>325</ele>
        <time>2019-08-24T22:16:23Z</time>
      </trkpt>
      <trkpt lat="44.21345" lon="2.06059">
        <ele>325</ele>
        <time>2019-08-24T22:16:25Z</time>
      </trkpt>
      <trkpt lat="44.21344" lon="2.06052">
        <ele>324</ele>
        <time>2019-08-24T22:16:30Z</time>
      </trkpt>
      <trkpt lat="44.21336" lon="2.06044">
        <ele>324</ele>
        <time>2019-08-24T22:16:33Z</time>
      </trkpt>
      <trkpt lat="44.21313" lon="2.06038">
        <ele>325</ele>
        <time>2019-08-24T22:16:34Z</time>
      </trkpt>
      <trkpt lat="44.21306" lon="2.06028">
        <ele>325</ele>
        <time>2019-08-24T22:16:40Z</time>
      </trkpt>
      <trkpt lat="44.21299" lon="2.06023">
        <ele>325</ele>
        <time>2019-08-24T22:16:45Z</time>
      </trkpt>
      <trkpt lat="44.21291" lon="2.06009">
        <ele>325</ele>
        <time>2019-08-24T22:16:47Z</time>
      </trkpt>
      <trkpt lat="44.21286" lon="2.05989">
        <ele>324</ele>
        <time>2019-08-24T22:16:52Z</time>
      </trkpt>
      <trkpt lat="44.2128" lon="2.0598">
        <ele>324</ele>
        <time>2019-08-24T22:16:58Z</time>
      </trkpt>
      <trkpt lat="44.21268" lon="2.0594">
        <ele>323</ele>
        <time>2019-08-24T22:17:03Z</time>
      </trkpt>
      <trkpt lat="44.21264" lon="2.05911">
        <ele>321</ele>
        <time>2019-08-24T22:17:10Z</time>
      </trkpt>
      <trkpt lat="44.21265" lon="2.05901">
        <ele>321</ele>
        <time>2019-08-24T22:17:14Z</time>
      </trkpt>
      <trkpt lat="44.21256" lon="2.05875">
        <ele>321</ele>
        <time>2019-08-24T22:17:20Z</time>
      </trkpt>
      <trkpt lat="44.21249" lon="2.05868">
        <ele>321</ele>
        <time>2019-08-24T22:17:24Z</time>
      </trkpt>
      <trkpt lat="44.21242" lon="2.05851">
        <ele>321</ele>
        <time>2019-08-24T22:17:31Z</time>
      </trkpt>
      <trkpt lat="44.21232" lon="2.05843">
        <ele>321</ele>
        <time>2019-08-24T22:17:35Z</time>
      </trkpt>
      <trkpt lat="44.21207" lon="2.05832">
        <ele>322</ele>
        <time>2019-08-24T22:17:46Z</time>
      </trkpt>
      <trkpt lat="44.21203" lon="2.05837">
        <ele>322</ele>
        <time>2019-08-24T22:17:51Z</time>
      </trkpt>
      <trkpt lat="44.21198" lon="2.05837">
        <ele>322</ele>
        <time>2019-08-24T22:17:55Z</time>
      </trkpt>
      <trkpt lat="44.21189" lon="2.05828">
        <ele>322</ele>
        <time>2019-08-24T22:18:00Z</time>
      </trkpt>
      <trkpt lat="44.21189" lon="2.05821">
        <ele>322</ele>
        <time>2019-08-24T22:18:05Z</time>
      </trkpt>
      <trkpt lat="44.21193" lon="2.05818">
        <ele>322</ele>
        <time>2019-08-24T22:18:07Z</time>
      </trkpt>
      <trkpt lat="44.21197" lon="2.05822">
        <ele>322</ele>
        <time>2019-08-24T22:18:13Z</time>
      </trkpt>
      <trkpt lat="44.21201" lon="2.05818">
        <ele>322</ele>
        <time>2019-08-24T22:18:14Z</time>
      </trkpt>
      <trkpt lat="44.21218" lon="2.05815">
        <ele>321</ele>
        <time>2019-08-24T22:18:19Z</time>
      </trkpt>
      <trkpt lat="44.21272" lon="2.05811">
        <ele>320</ele>
        <time>2019-08-24T22:18:22Z</time>
      </trkpt>
      <trkpt lat="44.21308" lon="2.05801">
        <ele>321</ele>
        <time>2019-08-24T22:18:29Z</time>
      </trkpt>
      <trkpt lat="44.21349" lon="2.05759">
        <ele>323</ele>
        <time>2019-08-24T22:18:33Z</time>
      </trkpt>
      <trkpt lat="44.21352" lon="2.05752">
        <ele>323</ele>
        <time>2019-08-24T22:18:36Z</time>
      </trkpt>
      <trkpt lat="44.21372" lon="2.0573">
        <ele>324</ele>
        <time>2019-08-24T22:18:37Z</time>
      </trkpt>
      <trkpt lat="44.21406" lon="2.05702">
        <ele>327</ele>
        <time>2019-08-24T22:18:44Z</time>
      </trkpt>
      <trkpt lat="44.21435" lon="2.05674">
        <ele>330</ele>
        <time>2019-08-24T22:18:45Z</time>
      </trkpt>
      <trkpt lat="44.21454" lon="2.05648">
        <ele>333</ele>
        <time>2019-08-24T22:18:46Z</time>
      </trkpt>
      <trkpt lat="44.21462" lon="2.05644">
        <ele>334</ele>
        <time>2019-08-24T22:18:49Z</time>
      </trkpt>
      <trkpt lat="44.21481" lon="2.05628">
        <ele>336</ele>
        <time>2019-08-24T22:18:52Z</time>
      </trkpt>
      <trkpt lat="44.21489" lon="2.05613">
        <ele>337</ele>
        <time>2019-08-24T22:19:00Z</time>
      </trkpt>
      <trkpt lat="44.21487" lon="2.05606">
        <ele>337</ele>
        <time>2019-08-24T22:19:03Z</time>
      </trkpt>
      <trkpt lat="44.21468" lon="2.0559">
        <ele>336</ele>
        <time>2019-08-24T22:19:06Z</time>
      </trkpt>
      <trkpt lat="44.21447" lon="2.0558">
        <ele>335</ele>
        <time>2019-08-24T22:19:07Z</time>
      </trkpt>
      <trkpt lat="44.21437" lon="2.05579">
        <ele>334</ele>
        <time>2019-08-24T22:19:12Z</time>
      </trkpt>
      <trkpt lat="44.21416" lon="2.05567">
        <ele>332</ele>
        <time>2019-08-24T22:19:31Z</time>
      </trkpt>
      <trkpt lat="44.21399" lon="2.05541">
        <ele>330</ele>
        <time>2019-08-24T22:19:36Z</time>
      </trkpt>
      <trkpt lat="44.2139" lon="2.05516">
        <ele>329</ele>
        <time>2019-08-24T22:19:49Z</time>
      </trkpt>
      <trkpt lat="44.21385" lon="2.05474">
        <ele>328</ele>
        <time>2019-08-24T22:19:50Z</time>
      </trkpt>
      <trkpt lat="44.21385" lon="2.05453">
        <ele>328</ele>
        <time>2019-08-24T22:19:53Z</time>
      </trkpt>
      <trkpt lat="44.21387" lon="2.05413">
        <ele>327</ele>
        <time>2019-08-24T22:20:00Z</time>
      </trkpt>
      <trkpt lat="44.21393" lon="2.0539">
        <ele>328</ele>
      </trkpt>
      <trkpt lat="44.21392" lon="2.05353">
        <ele>330</ele>
      </trkpt>
      <trkpt lat="44.21385" lon="2.05328">
        <ele>330</ele>
      </trkpt>
      <trkpt lat="44.21362" lon="2.05275">
        <ele>330</ele>
      </trkpt>
      <trkpt lat="44.21358" lon="2.05243">
        <ele>331</ele>
      </trkpt>
      <trkpt lat="44.21359" lon="2.05218">
        <ele>332</ele>
      </trkpt>
      <trkpt lat="44.21353" lon="2.05192">
        <ele>334</ele>
      </trkpt>
      <trkpt lat="44.21333" lon="2.05175">
        <ele>335</ele>
      </trkpt>
      <trkpt lat="44.21329" lon="2.05163">
        <ele>336</ele>
      </trkpt>
      <trkpt lat="44.21344" lon="2.05139">
        <ele>338</ele>
      </trkpt>
      <trkpt lat="44.21345" lon="2.05131">
        <ele>339</ele>
      </trkpt>
      <trkpt lat="44.21359" lon="2.05109">
        <ele>340</ele>
      </trkpt>
      <trkpt lat="44.21364" lon="2.05092">
        <ele>341</ele>
      </trkpt>
      <trkpt lat="44.21383" lon="2.05059">
        <ele>343</ele>
      </trkpt>
      <trkpt lat="44.21391" lon="2.05038">
        <ele>345</ele>
      </trkpt>
      <trkpt lat="44.214" lon="2.05028">
        <ele>346</ele>
      </trkpt>
      <trkpt lat="44.21407" lon="2.05028">
        <ele>345</ele>
      </trkpt>
      <trkpt lat="44.21432" lon="2.05016">
        <ele>345</ele>
      </trkpt>
      <trkpt lat="44.21433" lon="2.0501">
        <ele>346</ele>
      </trkpt>
      <trkpt lat="44.21429" lon="2.05003">
        <ele>347</ele>
      </trkpt>
      <trkpt lat="44.21417" lon="2.05">
        <ele>349</ele>
      </trkpt>
      <trkpt lat="44.21408" lon="2.0499">
        <ele>350</ele>
      </trkpt>
      <trkpt lat="44.21372" lon="2.04986">
        <ele>351</ele>
      </trkpt>
      <trkpt lat="44.2136" lon="2.0498">
        <ele>352</ele>
      </trkpt>
      <trkpt lat="44.21352" lon="2.04969">
        <ele>352</ele>
      </trkpt>
      <trkpt lat="44.21352" lon="2.04961">
        <ele>353</ele>
      </trkpt>
      <trkpt lat="44.21364" lon="2.04936">
        <ele>354</ele>
      </trkpt>
      <trkpt lat="44.2137" lon="2.04824">
        <ele>362</ele>
      </trkpt>
      <trkpt lat="44.21377" lon="2.04794">
        <ele>364</ele>
      </trkpt>
      <trkpt lat="44.21411" lon="2.04733">
        <ele>371</ele>
      </trkpt>
      <trkpt lat="44.21416" lon="2.04729">
        <ele>371</ele>
      </trkpt>
      <trkpt lat="44.21423" lon="2.04716">
        <ele>372</ele>
      </trkpt>
      <trkpt lat="44.21448" lon="2.04693">
        <ele>374</ele>
      </trkpt>
      <trkpt lat="44.21542" lon="2.04596">
        <ele>382.1</ele>
      </trkpt>
      <trkpt lat="44.21587" lon="2.04415">
        <ele>396.3</ele>
      </trkpt>
      <trkpt lat="44.21987" lon="2.04443">
        <ele>399.8</ele>
      </trkpt>
      <trkpt lat="44.21972" lon="2.04331">
        <ele>395.6</ele>
      </trkpt>
      <trkpt lat="44.21992" lon="2.04025">
        <ele>384</ele>
      </trkpt>
      <trkpt lat="44.21917" lon="2.03788">
        <ele>369.3</ele>
      </trkpt>
      <trkpt lat="44.21912" lon="2.03683">
        <ele>363</ele>
      </trkpt>
      <trkpt lat="44.22012" lon="2.03558">
        <ele>368.9</ele>
      </trkpt>
      <trkpt lat="44.22066" lon="2.03328">
        <ele>375.1</ele>
      </trkpt>
      <trkpt lat="44.22066" lon="2.03174">
        <ele>379.8</ele>
      </trkpt>
      <trkpt lat="44.22301" lon="2.02763">
        <ele>394.1</ele>
      </trkpt>
      <trkpt lat="44.22406" lon="2.02498">
        <ele>400.6</ele>
      </trkpt>
      <trkpt lat="44.22476" lon="2.02658">
        <ele>406.3</ele>
      </trkpt>
      <trkpt lat="44.22531" lon="2.02965">
        <ele>421.4</ele>
      </trkpt>
      <trkpt lat="44.2254" lon="2.0303">
        <ele>426.8</ele>
      </trkpt>
      <trkpt lat="44.2254" lon="2.03213">
        <ele>434.8</ele>
      </trkpt>
      <trkpt lat="44.22625" lon="2.03336">
        <ele>416</ele>
      </trkpt>
      <trkpt lat="44.22554" lon="2.03331">
        <ele>428.2</ele>
      </trkpt>
      <trkpt lat="44.22512" lon="2.03366">
        <ele>419.9</ele>
      </trkpt>
      <trkpt lat="44.2248" lon="2.03415">
        <ele>417.2</ele>
      </trkpt>
      <trkpt lat="44.22399" lon="2.03637">
        <ele>386.4</ele>
      </trkpt>
      <trkpt lat="44.2247" lon="2.03666">
        <ele>388.8</ele>
      </trkpt>
      <trkpt lat="44.22427" lon="2.03711">
        <ele>382</ele>
      </trkpt>
      <trkpt lat="44.22448" lon="2.03854">
        <ele>381.1</ele>
      </trkpt>
      <trkpt lat="44.22547" lon="2.03858">
        <ele>384.4</ele>
      </trkpt>
      <trkpt lat="44.22576" lon="2.03952">
        <ele>389.3</ele>
      </trkpt>
      <trkpt lat="44.22703" lon="2.03947">
        <ele>391.2</ele>
      </trkpt>
      <trkpt lat="44.22809" lon="2.03997">
        <ele>396.3</ele>
      </trkpt>
      <trkpt lat="44.22784" lon="2.04061">
        <ele>396.6</ele>
      </trkpt>
    </trkseg>
  </trk>
</gpx>